Pagrindinis puslapis
METAR-TAF:

METAR-TAF

Oro uostai :

Karalienės Alijos tarptautinis oro uostas

Amanas-Queen Alia, Jordanija

platuma: 31-40N, ilguma: 035-58E, Aukštis: 721 m

Dabartinis oras

Ataskaita buvo paskelbta 1 valandą ir 3 minutes, ne 03:00 UTC
Vėjas 6 kt iš Šiaurės Vakarų
Temperatūra 16°C
Drėgmė 82%
Slėgis 1012 hPa
Matomumas: 5000 m
migla

METAR: OJAI 160300Z 31006KT 5000 HZ NSC 16/13 Q1012 NOSIG

Laikas: 07:03 (04:03 UTC)

Prognozė

Ataskaita buvo paskelbta 5 valandos ir 13 minutes, ne 22:50 UTC
Prognozė galioja nuo 16 metu 00 UTC su 17 metu 06 UTC
Vėjas 2 kt nuo kintamojo kryptimis
Matomumas: 6000 m
Tapsmas
nuo 16 metu 20 UTC su 16 metu 22 UTC
Vėjas 8 kt iš Vakarų/Šiaurės Vakarų
Matomumas: 5000 m
migla
Tikimybė 30% :
Laikinai
nuo 16 metu 13 UTC su 16 metu 17 UTC
Vėjas 16 kt iš Vakarų/Šiaurės Vakarų
Matomumas: 4000 m
Dulkes pustymas

TAF: OJAI 152250Z 1600/1706 VRB02KT 6000 NSC BECMG 1620/1622 29008KT 5000 HZ PROB30 TEMPO 1613/1617 30016KT 4000 BLDU

Orai ataskaitas ir orų prognozės (METAR, TAF).

turimą stotys yra geltonos ir raudonos taškus žemėlapyje.

Perkelti pele per norėdami pamatyti stoties vardą.

Tada spustelėkite, norėdami matyti oro stebėjimo ir prognozės.

Norėdami pakeisti žemėlapį: spustelėkite ant žalios mygtukų su juodo kryžiaus žemyn,; žalią mygtuką su brūkšneliu, jei norite nutolinti; arba žalių rodyklių gretimoms žemėlapius.


METAR-TAF: